createdAt,value
2019-01-24T00:02:04.686Z,36.7
2019-01-24T00:05:10.678Z,36.7
2019-01-24T00:08:16.664Z,36.7
2019-01-24T00:11:25.317Z,36.7
2019-01-24T00:14:31.258Z,36.8
2019-01-24T00:17:37.134Z,36.8
2019-01-24T00:20:43.306Z,36.8
2019-01-24T00:23:49.252Z,36.8
2019-01-24T00:26:55.183Z,36.8
2019-01-24T00:30:01.067Z,36.8
2019-01-24T00:33:07.051Z,36.9
2019-01-24T00:36:12.989Z,36.9
2019-01-24T00:39:19.122Z,36.9
2019-01-24T00:42:25.191Z,36.9
2019-01-24T00:45:31.278Z,36.9
2019-01-24T00:48:37.207Z,36.9
2019-01-24T00:51:44.602Z,36.9
2019-01-24T00:54:50.580Z,37
2019-01-24T00:57:56.640Z,37
2019-01-24T01:01:02.590Z,37
2019-01-24T01:04:08.548Z,37.1
2019-01-24T01:07:14.430Z,37.3
2019-01-24T01:10:20.365Z,37.4
2019-01-24T01:13:29.093Z,37.5
2019-01-24T01:16:35.043Z,37.5
2019-01-24T01:19:41.011Z,37.5
2019-01-24T01:22:46.977Z,37.6
2019-01-24T01:25:52.935Z,37.5
2019-01-24T01:28:58.994Z,37.5
2019-01-24T01:32:04.864Z,37.6
2019-01-24T01:35:10.805Z,37.5
2019-01-24T01:38:18.092Z,37.5
2019-01-24T01:41:24.057Z,37.5
2019-01-24T01:44:30.013Z,37.5
2019-01-24T01:47:35.903Z,37.4
2019-01-24T01:50:41.824Z,37.5
2019-01-24T01:53:47.783Z,37.4
2019-01-24T01:56:53.658Z,37.4
2019-01-24T01:59:59.611Z,37.4
2019-01-24T02:03:05.665Z,37.4
2019-01-24T02:06:11.619Z,37.4
2019-01-24T02:09:17.695Z,37.5
2019-01-24T02:12:23.557Z,37.4
2019-01-24T02:15:29.501Z,37.5
2019-01-24T02:18:35.457Z,37.4
2019-01-24T02:21:41.415Z,37.5
2019-01-24T02:24:47.374Z,37.6
2019-01-24T02:27:53.334Z,37.6
2019-01-24T02:30:59.291Z,37.5
2019-01-24T02:34:05.260Z,37.7
2019-01-24T02:37:11.217Z,37.7
2019-01-24T02:40:17.274Z,37.7
2019-01-24T02:43:23.234Z,37.7
2019-01-24T02:46:29.103Z,37.6
2019-01-24T02:49:35.050Z,37.6
2019-01-24T02:52:41.017Z,37.7
2019-01-24T02:55:47.079Z,37.7
2019-01-24T02:58:53.063Z,37.7
2019-01-24T03:01:58.989Z,37.9
2019-01-24T03:05:04.946Z,37.8
2019-01-24T03:08:10.912Z,37.8
2019-01-24T03:11:16.870Z,37.8
2019-01-24T03:14:23.047Z,37.8
2019-01-24T03:17:28.950Z,37.9
2019-01-24T03:20:34.855Z,37.9
2019-01-24T03:23:40.731Z,37.8
2019-01-24T03:26:46.765Z,37.8
2019-01-24T03:29:52.633Z,37.8
2019-01-24T03:32:58.785Z,37.9
2019-01-24T03:36:04.789Z,37.9
2019-01-24T03:39:10.815Z,37.9
2019-01-24T03:42:16.787Z,38
2019-01-24T03:45:22.734Z,38
2019-01-24T03:48:28.645Z,38
2019-01-24T03:51:34.714Z,38
2019-01-24T03:54:40.600Z,37.9
2019-01-24T03:57:46.476Z,37.8
2019-01-24T04:00:52.425Z,37.7
2019-01-24T04:03:58.385Z,37.6
2019-01-24T04:07:04.447Z,37.5
2019-01-24T04:10:10.410Z,37.5
2019-01-24T04:13:18.917Z,37.4
2019-01-24T04:16:24.874Z,37.7
2019-01-24T04:19:30.775Z,37.3
2019-01-24T04:22:36.796Z,37.2
2019-01-24T04:25:42.765Z,37.2
2019-01-24T04:28:48.710Z,37.2
2019-01-24T04:31:54.590Z,37.1
2019-01-24T04:35:00.642Z,37.1
2019-01-24T04:38:06.565Z,37.1
2019-01-24T04:41:12.550Z,37.1
2019-01-24T04:44:18.614Z,37
2019-01-24T04:47:27.284Z,37
2019-01-24T04:50:33.263Z,36.9
2019-01-24T04:53:39.257Z,36.9
2019-01-24T04:56:45.130Z,36.8
2019-01-24T04:59:51.072Z,36.8
2019-01-24T05:02:57.033Z,36.7
2019-01-24T05:06:03.095Z,36.7
2019-01-24T05:09:09.059Z,36.7
2019-01-24T05:12:15.013Z,36.7
2019-01-24T05:15:21.087Z,36.6
2019-01-24T05:18:27.053Z,36.6
2019-01-24T05:21:33.194Z,36.6
2019-01-24T05:24:39.075Z,36.6
2019-01-24T05:27:45.020Z,36.5
2019-01-24T05:30:51.073Z,36.6
2019-01-24T05:33:57.037Z,36.5
2019-01-24T05:37:02.904Z,36.5
2019-01-24T05:40:08.959Z,36.5
2019-01-24T05:43:15.016Z,36.5
2019-01-24T05:46:20.978Z,36.9
2019-01-24T05:49:26.929Z,36.6
2019-01-24T05:52:32.888Z,36.4
2019-01-24T05:55:38.846Z,36.3
2019-01-24T05:58:44.811Z,36.2
2019-01-24T06:01:50.872Z,36.2
2019-01-24T06:04:56.760Z,36.4
2019-01-24T06:08:02.640Z,36.3
2019-01-24T06:11:08.647Z,36.5
2019-01-24T06:14:14.706Z,36.3
2019-01-24T06:17:20.664Z,36.1
2019-01-24T06:20:26.625Z,36
2019-01-24T06:23:32.559Z,36
2019-01-24T06:26:38.541Z,35.9
2019-01-24T06:29:44.500Z,35.9
2019-01-24T06:32:50.378Z,35.9
2019-01-24T06:35:56.321Z,35.9
2019-01-24T06:39:02.386Z,36.1
2019-01-24T06:42:08.439Z,36
2019-01-24T06:45:14.314Z,36
2019-01-24T06:48:20.314Z,36
2019-01-24T06:51:26.198Z,35.9
2019-01-24T06:54:32.174Z,35.9
2019-01-24T06:57:38.155Z,35.9
2019-01-24T07:00:47.062Z,36.7
2019-01-24T07:03:53.041Z,36.8
2019-01-24T07:06:59.082Z,36
2019-01-24T07:10:04.982Z,36
2019-01-24T07:13:11.010Z,36
2019-01-24T07:16:16.960Z,36.1
2019-01-24T07:19:22.919Z,36
2019-01-24T07:22:28.888Z,35.9
2019-01-24T07:25:34.787Z,35.7
2019-01-24T07:28:41.055Z,35.6
2019-01-24T07:31:47.236Z,35.7
2019-01-24T07:34:53.492Z,35.4
2019-01-24T07:37:59.847Z,35.7
2019-01-24T07:41:07.876Z,35.4
2019-01-24T07:44:14.335Z,35.6
2019-01-24T07:47:21.525Z,35.3
2019-01-24T07:50:27.769Z,35.4
2019-01-24T07:53:36.016Z,35.7
2019-01-24T07:56:42.027Z,35.6
2019-01-24T07:59:49.101Z,35.5
2019-01-24T08:02:55.061Z,35.5
2019-01-24T08:06:01.127Z,35.5
2019-01-24T08:09:13.712Z,35.6
2019-01-24T08:12:19.635Z,35.6
2019-01-24T08:15:25.664Z,35.7
2019-01-24T08:18:32.824Z,38
2019-01-24T08:21:38.675Z,36
2019-01-24T08:24:44.655Z,36
2019-01-24T08:27:50.764Z,36.1
2019-01-24T08:30:56.800Z,36
2019-01-24T08:34:02.952Z,36.3
2019-01-24T08:37:08.909Z,36.4
2019-01-24T08:40:15.866Z,36.5
2019-01-24T08:43:21.858Z,36.7
2019-01-24T08:46:28.086Z,36.5
2019-01-24T08:49:35.460Z,36.6
2019-01-24T08:52:41.638Z,36.6
2019-01-24T08:55:47.789Z,37
2019-01-24T08:58:54.204Z,36.8
2019-01-24T09:02:00.627Z,36.8
2019-01-24T09:05:07.852Z,36.8
2019-01-24T09:08:13.894Z,36.8
2019-01-24T09:11:20.038Z,36.7
2019-01-24T09:14:26.602Z,36.7
2019-01-24T09:17:32.895Z,36.7
2019-01-24T09:20:39.262Z,36.8
2019-01-24T09:23:45.379Z,36.8
2019-01-24T09:26:51.337Z,36.7
2019-01-24T09:29:57.292Z,36.8
2019-01-24T09:33:03.379Z,36.8
2019-01-24T09:36:09.330Z,36.8
2019-01-24T09:39:17.841Z,36.8
2019-01-24T09:42:23.985Z,36.7
2019-01-24T09:45:30.272Z,36.7
2019-01-24T09:48:37.378Z,36.7
2019-01-24T09:51:43.431Z,36.7
2019-01-24T09:54:49.376Z,36.7
2019-01-24T09:57:55.255Z,36.6
2019-01-24T10:01:01.355Z,36.6
2019-01-24T10:04:07.254Z,36.6
2019-01-24T10:07:13.178Z,36.6
2019-01-24T10:10:19.411Z,36.7
2019-01-24T10:13:28.873Z,36.7
2019-01-24T10:16:35.025Z,36.6
2019-01-24T10:19:41.103Z,36.5
2019-01-24T10:22:46.988Z,36.5
2019-01-24T10:25:52.880Z,36.4
2019-01-24T10:28:58.925Z,36.5
2019-01-24T10:32:04.858Z,36.4
2019-01-24T10:35:10.985Z,36.4
2019-01-24T10:38:17.450Z,36.4
2019-01-24T10:41:23.572Z,36.2
2019-01-24T10:44:29.537Z,36.3
2019-01-24T10:47:36.757Z,36.3
2019-01-24T10:50:42.898Z,36.4
2019-01-24T10:53:48.764Z,36.4
2019-01-24T10:56:54.816Z,36.4
2019-01-24T11:00:00.916Z,36.3
2019-01-24T11:03:06.938Z,36.4
2019-01-24T11:06:13.000Z,36.6
2019-01-24T11:09:18.870Z,36.2
2019-01-24T11:12:24.793Z,36
2019-01-24T11:15:31.006Z,36
2019-01-24T11:18:39.825Z,35.8
2019-01-24T11:21:46.102Z,36
2019-01-24T11:24:52.348Z,35.8
2019-01-24T11:27:58.605Z,35.7
2019-01-24T11:31:04.545Z,35.6
2019-01-24T11:34:10.618Z,35.6
2019-01-24T11:37:17.809Z,35.6
2019-01-24T11:40:23.795Z,35.6
2019-01-24T11:43:29.672Z,35.5
2019-01-24T11:46:35.829Z,35.6
2019-01-24T11:49:42.912Z,35.5
2019-01-24T11:52:49.179Z,35.5
2019-01-24T11:55:55.461Z,35.6
2019-01-24T11:59:01.471Z,35.6
2019-01-24T12:02:07.531Z,35.7
2019-01-24T12:05:14.635Z,35.6
2019-01-24T12:08:23.222Z,35.6
2019-01-24T12:11:31.049Z,35.8
2019-01-24T12:14:37.108Z,35.5
2019-01-24T12:17:43.021Z,35.5
2019-01-24T12:20:49.977Z,35.4
2019-01-24T12:23:56.017Z,35.5
2019-01-24T12:27:05.552Z,35.4
2019-01-24T12:30:11.867Z,35.3
2019-01-24T12:33:17.990Z,35.4
2019-01-24T12:36:24.870Z,35.2
2019-01-24T12:39:32.063Z,35.3
2019-01-24T12:42:40.741Z,35.3
2019-01-24T12:45:46.739Z,35.2
2019-01-24T12:48:52.894Z,35.3
2019-01-24T12:51:59.742Z,35.4
2019-01-24T12:55:05.836Z,35.3
2019-01-24T12:58:11.723Z,35.3
2019-01-24T13:01:17.776Z,35.3
2019-01-24T13:04:23.726Z,35.3
2019-01-24T13:07:29.888Z,35.5
2019-01-24T13:10:36.871Z,35.3
2019-01-24T13:13:43.036Z,35.3
2019-01-24T13:16:49.016Z,35.4
2019-01-24T13:19:55.173Z,35.3
2019-01-24T13:23:01.111Z,35.4
2019-01-24T13:26:07.170Z,35.4
2019-01-24T13:29:13.233Z,35.4
2019-01-24T13:32:19.294Z,35.3
2019-01-24T13:35:25.172Z,35.5
2019-01-24T13:38:32.164Z,35.5
2019-01-24T13:41:43.222Z,35.5
2019-01-24T13:44:49.188Z,35.5
2019-01-24T13:47:55.555Z,35.6
2019-01-24T13:51:01.504Z,35.6
2019-01-24T13:54:10.352Z,35.6
2019-01-24T13:57:16.262Z,35.6
2019-01-24T14:00:22.380Z,35.6
2019-01-24T14:03:28.296Z,35.6
2019-01-24T14:06:34.395Z,35.6
2019-01-24T14:09:43.662Z,35.6
2019-01-24T14:12:51.011Z,35.6
2019-01-24T14:15:57.181Z,35.7
2019-01-24T14:19:03.106Z,35.6
2019-01-24T14:22:09.265Z,35.5
2019-01-24T14:25:15.095Z,35.6
2019-01-24T14:28:21.120Z,35.6
2019-01-24T14:31:26.981Z,35.5
2019-01-24T14:34:33.063Z,35.7
2019-01-24T14:37:40.558Z,35.5
2019-01-24T14:40:46.600Z,35.5
2019-01-24T14:43:52.852Z,35.5
2019-01-24T14:46:58.915Z,35.5
2019-01-24T14:50:04.987Z,35.6
2019-01-24T14:53:10.994Z,35.6
2019-01-24T14:56:17.332Z,35.5
2019-01-24T14:59:23.471Z,35.5
2019-01-24T15:02:29.342Z,35.5
2019-01-24T15:05:35.388Z,35.4
2019-01-24T15:08:41.291Z,35.5
2019-01-24T15:11:48.438Z,35.3
2019-01-24T15:14:54.605Z,35.6
2019-01-24T15:18:00.767Z,35.3
2019-01-24T15:21:06.727Z,35.3
2019-01-24T15:24:12.689Z,35.4
2019-01-24T15:27:18.589Z,35.2
2019-01-24T15:30:24.551Z,35
2019-01-24T15:33:30.675Z,35.2
2019-01-24T15:36:36.596Z,35.1
2019-01-24T15:39:42.556Z,35
2019-01-24T15:42:48.547Z,35
2019-01-24T15:45:54.621Z,35
2019-01-24T15:49:00.977Z,35
2019-01-24T15:52:07.042Z,34.9
2019-01-24T15:55:13.214Z,34.8
2019-01-24T15:58:19.264Z,34.9
2019-01-24T16:01:25.230Z,34.9
2019-01-24T16:04:31.250Z,34.8
2019-01-24T16:07:37.161Z,34.8
2019-01-24T16:10:43.103Z,34.8
2019-01-24T16:13:49.163Z,34.7
2019-01-24T16:16:55.227Z,34.8
2019-01-24T16:20:01.299Z,34.7
2019-01-24T16:23:07.264Z,34.9
2019-01-24T16:26:13.205Z,34.7
2019-01-24T16:29:19.181Z,34.9
2019-01-24T16:32:25.325Z,35
2019-01-24T16:35:32.416Z,34.7
2019-01-24T16:38:38.475Z,34.6
2019-01-24T16:41:44.364Z,34.7
2019-01-24T16:44:50.389Z,34.5
2019-01-24T16:47:56.311Z,34.2
2019-01-24T16:51:02.332Z,34.1
2019-01-24T16:54:08.290Z,34.1
2019-01-24T16:57:14.157Z,34.1
2019-01-24T17:00:20.100Z,34
2019-01-24T17:03:25.987Z,34
2019-01-24T17:06:32.016Z,34
2019-01-24T17:09:37.974Z,34
2019-01-24T17:12:43.880Z,33.7
2019-01-24T17:15:49.895Z,33.8
2019-01-24T17:18:55.957Z,33.7
2019-01-24T17:22:02.023Z,33.7
2019-01-24T17:25:07.909Z,33.6
2019-01-24T17:28:13.836Z,33.7
2019-01-24T17:31:19.792Z,33.6
2019-01-24T17:34:25.752Z,33.6
2019-01-24T17:37:31.715Z,33.5
2019-01-24T17:40:37.891Z,33.5
2019-01-24T17:43:44.223Z,33.5
2019-01-24T17:46:50.280Z,33.5
2019-01-24T17:49:56.286Z,33.5
2019-01-24T17:53:02.230Z,33.4
2019-01-24T17:56:08.186Z,33.4
2019-01-24T17:59:14.069Z,33.4
2019-01-24T18:02:20.108Z,33.3
2019-01-24T18:05:25.999Z,33.3
2019-01-24T18:08:32.226Z,33.2
2019-01-24T18:11:38.287Z,33.2
2019-01-24T18:14:44.186Z,33.2
2019-01-24T18:17:50.083Z,33.2
2019-01-24T18:20:55.959Z,33.1
2019-01-24T18:24:02.039Z,33.1
2019-01-24T18:27:07.992Z,33.1
2019-01-24T18:30:13.941Z,33.1
2019-01-24T18:33:20.007Z,33
2019-01-24T18:36:25.995Z,33
2019-01-24T18:39:32.024Z,33
2019-01-24T18:42:37.951Z,33
2019-01-24T18:45:43.953Z,33
2019-01-24T18:48:50.011Z,33
2019-01-24T18:51:56.168Z,33
2019-01-24T18:55:02.128Z,33
2019-01-24T18:58:08.089Z,33
2019-01-24T19:01:14.041Z,33.1
2019-01-24T19:04:20.092Z,33.1
2019-01-24T19:07:26.068Z,33.2
2019-01-24T19:10:31.940Z,33.2
2019-01-24T19:13:38.092Z,33.3
2019-01-24T19:16:44.026Z,33.3
2019-01-24T19:19:50.017Z,33.3
2019-01-24T19:22:55.898Z,33.3
2019-01-24T19:26:01.936Z,33.3
2019-01-24T19:29:07.901Z,33.4
2019-01-24T19:32:13.860Z,33.4
2019-01-24T19:35:19.760Z,33.4
2019-01-24T19:38:25.792Z,33.4
2019-01-24T19:41:31.909Z,33.4
2019-01-24T19:44:39.530Z,33.4
2019-01-24T19:47:45.489Z,33.5
2019-01-24T19:50:51.427Z,33.5
2019-01-24T19:53:57.641Z,33.5
2019-01-24T19:57:04.212Z,33.5
2019-01-24T20:00:10.249Z,33.5
2019-01-24T20:03:16.210Z,33.5
2019-01-24T20:06:22.269Z,33.5
2019-01-24T20:09:28.141Z,33.5
2019-01-24T20:12:34.197Z,33.5
2019-01-24T20:15:40.154Z,33.5
2019-01-24T20:18:46.220Z,33.5
2019-01-24T20:21:56.254Z,33.5
2019-01-24T20:25:02.226Z,33.5
2019-01-24T20:28:08.103Z,33.5
2019-01-24T20:31:14.047Z,33.5
2019-01-24T20:34:19.974Z,33.6
2019-01-24T20:37:25.962Z,33.5
2019-01-24T20:40:32.127Z,33.6
2019-01-24T20:43:38.981Z,33.5
2019-01-24T20:46:44.971Z,33.6
2019-01-24T20:49:50.928Z,33.5
2019-01-24T20:52:56.799Z,33.5
2019-01-24T20:56:04.800Z,33.5
2019-01-24T20:59:10.750Z,33.6
2019-01-24T21:02:16.626Z,33.6
2019-01-24T21:05:22.561Z,33.5
2019-01-24T21:08:28.587Z,33.5
2019-01-24T21:11:34.607Z,33.5
2019-01-24T21:14:40.476Z,33.5
2019-01-24T21:17:46.530Z,33.5
2019-01-24T21:20:52.580Z,33.5
2019-01-24T21:23:58.746Z,33.5
2019-01-24T21:27:04.808Z,33.5
2019-01-24T21:30:10.767Z,33.5
2019-01-24T21:33:16.716Z,33.5
2019-01-24T21:36:22.587Z,33.5
2019-01-24T21:39:28.467Z,33.5
2019-01-24T21:42:34.493Z,33.5
2019-01-24T21:45:40.455Z,33.4
2019-01-24T21:48:46.512Z,33.4
2019-01-24T21:51:52.473Z,33.4
2019-01-24T21:54:58.637Z,33.3
2019-01-24T21:58:04.621Z,33.3
2019-01-24T22:01:10.555Z,33.4
2019-01-24T22:04:16.437Z,33.5
2019-01-24T22:07:22.373Z,33.5
2019-01-24T22:10:28.333Z,33.5
2019-01-24T22:13:34.208Z,33.6
2019-01-24T22:16:40.252Z,33.6
2019-01-24T22:19:46.212Z,33.6
2019-01-24T22:22:52.175Z,33.7
2019-01-24T22:25:58.132Z,33.6
2019-01-24T22:29:04.101Z,33.6
2019-01-24T22:32:10.010Z,33.7
2019-01-24T22:35:16.011Z,33.7
2019-01-24T22:38:21.886Z,33.7
2019-01-24T22:41:27.927Z,33.7
2019-01-24T22:44:36.665Z,33.7
2019-01-24T22:47:42.612Z,33.7
2019-01-24T22:50:48.573Z,33.8
2019-01-24T22:53:54.517Z,33.8
2019-01-24T22:57:00.494Z,33.8
2019-01-24T23:00:06.368Z,33.8
2019-01-24T23:03:12.411Z,33.8
2019-01-24T23:06:18.290Z,33.8
2019-01-24T23:09:24.331Z,33.8
2019-01-24T23:12:30.289Z,33.9
2019-01-24T23:15:36.249Z,33.9
2019-01-24T23:18:42.207Z,33.9
2019-01-24T23:21:49.453Z,33.9
2019-01-24T23:24:55.522Z,33.9
2019-01-24T23:28:01.521Z,33.9
2019-01-24T23:31:07.582Z,34
2019-01-24T23:34:13.542Z,34
2019-01-24T23:37:19.503Z,34
2019-01-24T23:40:25.376Z,34
2019-01-24T23:43:31.489Z,34
2019-01-24T23:46:37.793Z,34.1
2019-01-24T23:49:43.850Z,34.1
2019-01-24T23:52:49.768Z,34
2019-01-24T23:55:55.769Z,34.1
2019-01-24T23:59:01.646Z,34.1
